Meteorología y climatología de Navarra
Datos de la estación - Meteo Navarra

Estación de Eltzaburu GN

Altitud 588 m.


Datos desde el 15/02/2020 hasta el 16/02/2020 en horario solar
Los datos son PROVISIONALES

Anterior Página 1 de 1 Siguiente Descargar: Formato para Excel 2000 o superior   Formato csv   Formato para OpenOffice Calc
Fecha Temperatura Humedad relativa Radiación global Insolación Precipitación Vel. viento 10 m Vel. viento 10 m Dir. viento 10 m
ºC % W/m² s l/m² m/s km/h º
15/02/2020 0:00 3.7 96 0.0 0 0.0 0.7 2.6 102
15/02/2020 0:10 3.2 96 0.0 0 0.0 0.1 0.4 89
15/02/2020 0:20 3.2 97 0.0 0 0.0 0.0 0.1 45
15/02/2020 0:30 3.4 97 0.0 0 0.0 0.2 0.8 17
15/02/2020 0:40 3.1 97 0.0 0 0.0 0.3 0.9 304
15/02/2020 0:50 3.0 97 0.0 0 0.0 0.1 0.4 191
15/02/2020 1:00 2.7 97 0.0 0 0.0 0.1 0.4 185
15/02/2020 1:10 2.7 98 0.0 0 0.0 0.3 0.9 171
15/02/2020 1:20 2.9 98 0.0 0 0.0 0.8 2.8 330
15/02/2020 1:30 2.9 98 0.0 0 0.0 0.3 1.1 251
15/02/2020 1:40 2.9 98 0.0 0 0.0 0.1 0.2 303
15/02/2020 1:50 2.8 98 0.0 0 0.0 0.1 0.4 44
15/02/2020 2:00 2.2 98 0.0 0 0.0 1.0 3.6 322
15/02/2020 2:10 2.3 98 0.0 0 0.0 0.8 2.8 311
15/02/2020 2:20 2.7 98 0.0 0 0.0 0.2 0.8 205
15/02/2020 2:30 2.3 98 0.0 0 0.0 0.5 1.8 110
15/02/2020 2:40 1.8 98 0.0 0 0.0 0.1 0.2 296
15/02/2020 2:50 1.7 98 0.0 0 0.0 0.4 1.5 120
15/02/2020 3:00 1.3 98 0.0 0 0.0 0.4 1.4 150
15/02/2020 3:10 0.6 98 0.0 0 0.0 0.8 2.9 7
15/02/2020 3:20 0.8 98 0.0 0 0.0 0.5 1.8 13
15/02/2020 3:30 1.1 98 0.0 0 0.0 1.0 3.7 332
15/02/2020 3:40 1.6 99 0.0 0 0.0 1.4 5.1 329
15/02/2020 3:50 1.9 99 0.0 0 0.0 0.5 1.9 298
15/02/2020 4:00 2.1 99 0.0 0 0.0 0.2 0.9 58
15/02/2020 4:10 1.6 98 0.0 0 0.0 0.6 2.3 107
15/02/2020 4:20 0.2 98 0.0 0 0.0 0.3 1.2 352
15/02/2020 4:30 -0.2 98 0.0 0 0.0 0.1 0.5 355
15/02/2020 4:40 -0.1 98 0.0 0 0.0 0.0 0.1 33
15/02/2020 4:50 0.2 99 0.0 0 0.0 0.4 1.3 92
15/02/2020 5:00 0.4 99 0.0 0 0.0 0.5 1.9 30
15/02/2020 5:10 0.6 99 0.0 0 0.0 0.8 2.7 132
15/02/2020 5:20 -0.2 98 0.0 0 0.0 0.4 1.4 329
15/02/2020 5:30 -0.5 98 0.0 0 0.0 0.5 1.7 344
15/02/2020 5:40 -0.4 99 0.0 0 0.0 0.2 0.6 168
15/02/2020 5:50 -0.6 98 0.0 0 0.0 0.3 0.9 149
15/02/2020 6:00 -0.9 98 0.0 0 0.0 0.6 2.0 341
15/02/2020 6:10 -0.4 99 0.0 0 0.0 0.7 2.7 94
15/02/2020 6:20 0.2 99 0.0 0 0.0 0.7 2.6 348
15/02/2020 6:30 0.2 99 0.0 0 0.0 0.3 1.1 121
15/02/2020 6:40 0.2 99 0.0 0 0.0 0.3 1.1 149
15/02/2020 6:50 -0.4 98 0.0 0 0.0 0.1 0.4 239
15/02/2020 7:00 -0.5 99 0.0 0 0.0 0.2 0.8 149
15/02/2020 7:10 -0.7 99 0.0 0 0.0 0.5 1.9 102
15/02/2020 7:20 -0.9 99 0.0 0 0.0 0.7 2.6 79
15/02/2020 7:30 -1.0 99 9.7 0 0.0 0.6 2.1 331
15/02/2020 7:40 -1.0 99 21.6 0 0.0 0.2 0.7 16
15/02/2020 7:50 -1.0 99 37.7 0 0.0 0.1 0.3 268
15/02/2020 8:00 -1.1 99 50.9 0 0.0 0.3 0.9 215
15/02/2020 8:10 -1.0 99 50.9 0 0.0 0.0 0.0 0
15/02/2020 8:20 -0.9 99 44.0 0 0.0 0.3 1.1 347
15/02/2020 8:30 -0.4 99 50.7 0 0.0 0.7 2.4 335
15/02/2020 8:40 0.2 99 58.9 0 0.0 0.2 0.6 339
15/02/2020 8:50 1.6 99 135.1 216 0.0 0.5 1.9 335
15/02/2020 9:00 2.7 99 256.7 600 0.0 0.3 1.0 276
15/02/2020 9:10 3.6 99 272.5 600 0.0 0.4 1.6 305
15/02/2020 9:20 5.0 99 304.3 600 0.0 0.4 1.4 97
15/02/2020 9:30 6.2 99 345.4 600 0.0 0.4 1.4 168
15/02/2020 9:40 7.3 94 363.0 600 0.0 0.4 1.5 128
15/02/2020 9:50 8.6 79 391.8 600 0.0 1.2 4.2 121
15/02/2020 10:00 9.3 76 427.2 600 0.0 0.6 2.1 141
15/02/2020 10:10 9.1 77 442.6 600 0.0 1.3 4.6 165
15/02/2020 10:20 9.5 77 462.0 600 0.0 1.2 4.2 170
15/02/2020 10:30 10.6 73 487.3 600 0.0 1.4 5.1 146
15/02/2020 10:40 11.1 70 506.1 600 0.0 1.1 4.0 134
15/02/2020 10:50 11.5 72 525.7 600 0.0 1.6 5.8 178
15/02/2020 11:00 11.8 71 539.8 600 0.0 2.5 9.0 187
15/02/2020 11:10 11.8 72 552.5 600 0.0 3.1 11.1 193
15/02/2020 11:20 12.0 71 561.9 600 0.0 3.0 10.8 192
15/02/2020 11:30 12.3 69 566.2 600 0.0 3.0 10.6 179
15/02/2020 11:40 12.5 68 577.6 600 0.0 2.7 9.7 166
15/02/2020 11:50 13.0 67 580.4 600 0.0 1.8 6.5 162
15/02/2020 12:00 13.3 66 587.5 600 0.0 2.1 7.5 163
15/02/2020 12:10 13.6 65 596.6 600 0.0 2.1 7.7 161
15/02/2020 12:20 13.6 65 606.7 600 0.0 2.7 9.8 168
15/02/2020 12:30 13.2 67 600.8 600 0.0 3.6 13.0 179
15/02/2020 12:40 13.4 66 614.2 600 0.0 3.3 11.7 166
15/02/2020 12:50 13.5 66 573.8 600 0.0 2.7 9.8 161
15/02/2020 13:00 13.6 66 639.8 600 0.0 3.3 11.7 167
15/02/2020 13:10 13.6 66 457.1 600 0.0 2.4 8.6 163
15/02/2020 13:20 13.4 66 287.6 218 0.0 2.9 10.4 173
15/02/2020 13:30 13.4 67 417.6 600 0.0 2.3 8.1 174
15/02/2020 13:40 13.8 66 401.8 600 0.0 3.2 11.4 186
15/02/2020 13:50 13.5 68 368.4 600 0.0 2.3 8.2 174
15/02/2020 14:00 13.6 68 337.3 600 0.0 1.9 6.9 168
15/02/2020 14:10 13.8 67 346.1 600 0.0 1.4 5.1 171
15/02/2020 14:20 13.7 68 373.4 600 0.0 2.6 9.5 181
15/02/2020 14:30 13.7 68 292.3 600 0.0 2.1 7.6 163
15/02/2020 14:40 13.7 69 234.9 250 0.0 1.3 4.7 178
15/02/2020 14:50 13.5 70 233.6 232 0.0 1.8 6.4 177
15/02/2020 15:00 13.4 69 209.0 66 0.0 2.7 9.8 179
15/02/2020 15:10 13.5 69 175.9 0 0.0 1.4 4.9 164
15/02/2020 15:20 13.3 69 154.6 0 0.0 1.8 6.3 172
15/02/2020 15:30 13.2 69 144.2 0 0.0 1.2 4.1 165
15/02/2020 15:40 13.1 69 120.7 0 0.0 1.5 5.4 167
15/02/2020 15:50 13.0 69 97.3 0 0.0 2.0 7.1 171
15/02/2020 16:00 13.0 68 87.0 0 0.0 3.1 11.0 177
15/02/2020 16:10 12.9 70 85.4 0 0.0 1.8 6.4 166
15/02/2020 16:20 12.7 71 66.6 0 0.0 1.7 6.2 165
15/02/2020 16:30 12.5 72 52.8 0 0.0 1.5 5.4 160
15/02/2020 16:40 12.4 72 43.8 0 0.0 0.7 2.3 120
15/02/2020 16:50 12.3 73 35.5 0 0.0 0.9 3.2 109
15/02/2020 17:00 12.0 74 28.0 0 0.0 0.8 3.0 89
15/02/2020 17:10 11.9 74 22.0 0 0.0 0.7 2.5 132
15/02/2020 17:20 11.7 75 11.0 0 0.0 0.9 3.1 128
15/02/2020 17:30 11.6 75 0.0 0 0.0 0.8 2.9 135
15/02/2020 17:40 11.3 76 0.0 0 0.0 1.4 5.0 149
15/02/2020 17:50 11.5 75 0.0 0 0.0 1.6 5.7 174
15/02/2020 18:00 11.2 76 0.0 0 0.0 0.6 2.2 121
15/02/2020 18:10 10.9 77 0.0 0 0.0 0.7 2.4 65
15/02/2020 18:20 10.8 78 0.0 0 0.0 0.7 2.4 170
15/02/2020 18:30 11.0 77 0.0 0 0.0 1.4 5.0 191
15/02/2020 18:40 11.0 77 0.0 0 0.0 0.9 3.2 164
15/02/2020 18:50 10.8 78 0.0 0 0.0 0.7 2.7 116
15/02/2020 19:00 11.0 77 0.0 0 0.0 0.5 1.9 105
15/02/2020 19:10 10.8 78 0.0 0 0.0 0.4 1.3 120
15/02/2020 19:20 10.8 78 0.0 0 0.0 0.7 2.4 67
15/02/2020 19:30 10.3 80 0.0 0 0.0 1.0 3.6 81
15/02/2020 19:40 10.1 81 0.0 0 0.0 0.5 1.8 107
15/02/2020 19:50 10.0 82 0.0 0 0.0 0.8 2.9 94
15/02/2020 20:00 10.1 82 0.0 0 0.0 0.6 2.2 100
15/02/2020 20:10 10.1 82 0.0 0 0.0 0.4 1.6 108
15/02/2020 20:20 10.0 82 0.0 0 0.0 0.5 1.8 104
15/02/2020 20:30 9.9 83 0.0 0 0.0 0.3 0.9 99
15/02/2020 20:40 10.0 82 0.0 0 0.0 0.3 1.0 117
15/02/2020 20:50 9.8 83 0.0 0 0.0 0.4 1.5 95
15/02/2020 21:00 9.2 84 0.0 0 0.0 0.7 2.6 97
15/02/2020 21:10 9.1 86 0.0 0 0.0 0.8 2.8 132
15/02/2020 21:20 8.2 88 0.0 0 0.0 0.7 2.6 106
15/02/2020 21:30 7.7 88 0.0 0 0.0 0.9 3.2 148
15/02/2020 21:40 7.7 91 0.0 0 0.0 0.5 1.9 124
15/02/2020 21:50 7.9 92 0.0 0 0.0 0.4 1.5 94
15/02/2020 22:00 8.0 91 0.0 0 0.0 0.9 3.3 130
15/02/2020 22:10 8.2 90 0.0 0 0.0 1.0 3.7 134
15/02/2020 22:20 8.0 89 0.0 0 0.0 1.0 3.5 130
15/02/2020 22:30 7.8 91 0.0 0 0.0 0.7 2.5 103
15/02/2020 22:40 8.0 91 0.0 0 0.0 0.3 1.2 121
15/02/2020 22:50 8.1 90 0.0 0 0.0 0.9 3.1 95
15/02/2020 23:00 8.4 90 0.0 0 0.0 1.2 4.2 97
15/02/2020 23:10 8.9 87 0.0 0 0.0 1.2 4.3 94
15/02/2020 23:20 8.6 86 0.0 0 0.0 1.0 3.7 117
15/02/2020 23:30 8.7 87 0.0 0 0.0 1.0 3.4 91
15/02/2020 23:40 8.9 85 0.0 0 0.0 1.1 4.0 113
15/02/2020 23:50 8.2 88 0.0 0 0.0 0.8 2.7 113
Anterior Página 1 de 1 Siguiente

NOTA: Tipo de datos según el color:
   - Valores diarios o 10 minutos correctos
   - Valores diarios calculados a partir de un número de datos 10 minutos menor que 144 y mayor que 120, o de un número de datos semihorarios menor que 48 y mayor que 40 (caso de las estaciones de INTIA y del Ministerio)
   - Valores diez minutos estimados


Contacto        Enlaces        Aviso legal